Time;durP1;ratioP1;P1;durP2;ratioP2;P2;SDS_P1;SDS_P2;PMS_P1;PMS_P2;Temp;Humidity;BMP_temperature;BMP_pressure;BME280_temperature;BME280_humidity;BME280_pressure;Samples;Min_cycle;Max_cycle;Signal;HPM_P1;HPM_P2
2023/12/10 00:00:27;;;;;;;35.83;21.63;;;;;;;;;;5012524;28;20042;-58
2023/12/10 00:02:53;;;;;;;37.00;21.58;;;;;;;;;;5012302;28;20044;-59
2023/12/10 00:05:18;;;;;;;33.75;21.88;;;;;;;;;;5012104;28;20468;-60
2023/12/10 00:07:44;;;;;;;34.83;20.77;;;;;;;;;;5011975;28;20036;-58
2023/12/10 00:10:09;;;;;;;35.30;21.63;;;;;;;;;;5012097;28;20034;-58
2023/12/10 00:12:34;;;;;;;46.13;25.10;;;;;;;;;;5011614;28;20037;-58
2023/12/10 00:15:00;;;;;;;46.95;24.67;;;;;;;;;;5012055;28;20152;-59
2023/12/10 00:17:26;;;;;;;43.03;23.95;;;;;;;;;;5011866;28;20030;-58
2023/12/10 00:19:52;;;;;;;34.22;22.83;;;;;;;;;;4994427;28;20045;-60
2023/12/10 00:22:17;;;;;;;40.13;24.00;;;;;;;;;;5014672;28;20598;-61
2023/12/10 00:24:43;;;;;;;59.80;32.72;;;;;;;;;;5014950;28;20026;-61
2023/12/10 00:27:09;;;;;;;141.75;72.28;;;;;;;;;;5014998;28;20479;-61
2023/12/10 00:29:34;;;;;;;85.20;46.20;;;;;;;;;;5015001;28;20104;-60
2023/12/10 00:32:00;;;;;;;77.82;46.13;;;;;;;;;;5015239;28;20387;-59
2023/12/10 00:34:25;;;;;;;131.07;82.38;;;;;;;;;;5014899;28;20033;-59
2023/12/10 00:36:50;;;;;;;57.88;34.80;;;;;;;;;;5015111;28;20030;-58
2023/12/10 00:39:16;;;;;;;39.38;23.70;;;;;;;;;;4998099;28;20089;-59
2023/12/10 00:41:42;;;;;;;41.83;23.90;;;;;;;;;;5015403;28;20036;-60
2023/12/10 00:44:07;;;;;;;41.90;25.08;;;;;;;;;;5015348;28;20057;-59
2023/12/10 00:46:33;;;;;;;42.13;27.60;;;;;;;;;;5015554;28;20353;-59
2023/12/10 00:48:58;;;;;;;43.72;26.92;;;;;;;;;;5014895;28;20034;-58
2023/12/10 00:51:25;;;;;;;44.92;24.42;;;;;;;;;;5014867;28;20041;-58
2023/12/10 00:53:51;;;;;;;39.72;23.40;;;;;;;;;;5008363;28;20029;-58
2023/12/10 00:56:17;;;;;;;51.35;27.67;;;;;;;;;;4978060;28;20035;-63
2023/12/10 00:58:43;;;;;;;46.25;26.77;;;;;;;;;;4995103;28;20027;-63
2023/12/10 01:01:10;;;;;;;44.50;26.15;;;;;;;;;;4978130;28;20041;-59
2023/12/10 01:03:36;;;;;;;41.30;24.35;;;;;;;;;;4978112;28;20033;-58
2023/12/10 01:06:03;;;;;;;43.38;26.05;;;;;;;;;;4995767;28;20022;-58
2023/12/10 01:08:29;;;;;;;45.03;25.83;;;;;;;;;;4961931;28;20109;-58
2023/12/10 01:10:54;;;;;;;41.38;24.52;;;;;;;;;;4978229;28;20085;-58
2023/12/10 01:13:21;;;;;;;38.92;23.85;;;;;;;;;;4995329;28;20041;-58
2023/12/10 01:15:46;;;;;;;43.10;24.75;;;;;;;;;;4977334;28;20022;-58
2023/12/10 01:18:12;;;;;;;44.53;25.33;;;;;;;;;;4994933;28;20019;-59
2023/12/10 01:20:37;;;;;;;46.97;26.10;;;;;;;;;;4977519;28;20460;-59
2023/12/10 01:23:07;;;;;;;46.72;25.92;;;;;;;;;;4995004;28;20041;-58
2023/12/10 01:25:34;;;;;;;47.10;25.67;;;;;;;;;;4994431;28;20404;-58
2023/12/10 01:28:00;;;;;;;47.00;24.92;;;;;;;;;;4994669;28;20340;-58
2023/12/10 01:30:25;;;;;;;52.05;28.20;;;;;;;;;;4994892;28;20034;-58
2023/12/10 01:32:56;;;;;;;50.42;27.30;;;;;;;;;;4977781;28;20042;-63
2023/12/10 01:35:22;;;;;;;47.78;26.42;;;;;;;;;;4977116;28;20384;-63
2023/12/10 01:37:47;;;;;;;48.35;25.70;;;;;;;;;;4994893;28;20038;-63
2023/12/10 01:40:13;;;;;;;50.65;27.23;;;;;;;;;;4994696;28;20027;-63
2023/12/10 01:42:40;;;;;;;49.70;26.13;;;;;;;;;;4995028;28;20038;-63
2023/12/10 01:45:06;;;;;;;56.65;29.00;;;;;;;;;;4994646;28;20116;-63
2023/12/10 01:47:34;;;;;;;58.13;30.05;;;;;;;;;;4994887;28;20445;-58
2023/12/10 01:49:59;;;;;;;61.10;31.05;;;;;;;;;;4994622;28;20030;-62
2023/12/10 01:52:25;;;;;;;54.38;28.58;;;;;;;;;;4994465;28;20034;-63
2023/12/10 01:54:50;;;;;;;50.00;28.83;;;;;;;;;;4977605;28;20134;-63
2023/12/10 01:57:16;;;;;;;46.75;27.13;;;;;;;;;;4977394;28;20029;-63
2023/12/10 01:59:41;;;;;;;52.08;29.42;;;;;;;;;;4977575;28;20034;-58
2023/12/10 02:02:07;;;;;;;51.80;28.38;;;;;;;;;;5010043;23;20054;-59
2023/12/10 02:04:33;;;;;;;53.33;28.60;;;;;;;;;;5014276;28;20492;-59
2023/12/10 02:06:58;;;;;;;50.60;29.00;;;;;;;;;;5014035;28;20036;-58
2023/12/10 02:09:24;;;;;;;51.67;28.20;;;;;;;;;;5014193;28;20099;-63
2023/12/10 02:11:50;;;;;;;49.90;28.50;;;;;;;;;;5017167;28;20038;-63
2023/12/10 02:14:15;;;;;;;53.33;32.40;;;;;;;;;;5018161;28;20029;-63
2023/12/10 02:16:42;;;;;;;53.35;31.95;;;;;;;;;;5017961;28;20030;-59
2023/12/10 02:19:07;;;;;;;51.15;30.48;;;;;;;;;;5018088;28;20383;-58
2023/12/10 02:21:34;;;;;;;47.80;26.42;;;;;;;;;;5017687;28;20029;-63
2023/12/10 02:24:01;;;;;;;51.33;28.05;;;;;;;;;;5029141;23;20081;-63
2023/12/10 02:26:27;;;;;;;49.13;27.88;;;;;;;;;;5017422;28;20025;-63
2023/12/10 02:28:53;;;;;;;51.95;30.60;;;;;;;;;;5017821;28;20045;-59
2023/12/10 02:31:33;;;;;;;45.83;26.33;;;;;;;;;;5037060;22;20061;-63
2023/12/10 02:33:58;;;;;;;46.40;26.25;;;;;;;;;;4977071;28;20050;-63
2023/12/10 02:36:26;;;;;;;47.83;27.13;;;;;;;;;;5006085;23;20050;-63
2023/12/10 02:38:51;;;;;;;46.53;27.30;;;;;;;;;;5030103;23;20034;-63
2023/12/10 02:41:18;;;;;;;42.10;25.38;;;;;;;;;;5015759;28;20538;-63
2023/12/10 02:43:43;;;;;;;43.03;25.05;;;;;;;;;;5016359;28;20041;-63
2023/12/10 02:46:09;;;;;;;40.97;24.25;;;;;;;;;;5017056;28;20030;-63
2023/12/10 02:48:34;;;;;;;43.92;25.90;;;;;;;;;;4999847;28;20388;-63
2023/12/10 02:50:59;;;;;;;45.03;26.27;;;;;;;;;;5017060;28;20030;-63
2023/12/10 02:53:25;;;;;;;39.00;24.40;;;;;;;;;;4999696;28;20460;-63
2023/12/10 02:55:51;;;;;;;42.40;24.60;;;;;;;;;;5016976;28;20471;-64
2023/12/10 02:58:18;;;;;;;40.35;24.73;;;;;;;;;;5015879;28;20061;-64
2023/12/10 03:00:43;;;;;;;41.65;24.17;;;;;;;;;;5017414;28;20073;-64
2023/12/10 03:03:15;;;;;;;42.00;25.50;;;;;;;;;;5016968;28;20034;-64
2023/12/10 03:05:40;;;;;;;39.30;24.45;;;;;;;;;;5015487;28;20087;-64
2023/12/10 03:08:10;;;;;;;40.03;24.40;;;;;;;;;;5016692;28;20027;-64
2023/12/10 03:10:35;;;;;;;39.03;23.20;;;;;;;;;;4999461;28;20029;-64
2023/12/10 03:13:01;;;;;;;41.08;25.27;;;;;;;;;;5016497;28;20056;-64
2023/12/10 03:15:32;;;;;;;38.10;26.17;;;;;;;;;;5017028;28;20126;-64
2023/12/10 03:17:58;;;;;;;39.22;23.42;;;;;;;;;;5016799;28;20030;-64
2023/12/10 03:20:23;;;;;;;39.90;24.75;;;;;;;;;;5017020;28;20045;-64
2023/12/10 03:22:48;;;;;;;39.90;26.17;;;;;;;;;;5016513;28;20123;-64
2023/12/10 03:25:18;;;;;;;41.65;25.08;;;;;;;;;;5015119;28;20073;-64
2023/12/10 03:27:43;;;;;;;39.77;25.03;;;;;;;;;;5017012;28;20104;-64
2023/12/10 03:30:11;;;;;;;39.63;24.85;;;;;;;;;;5016998;28;20069;-64
2023/12/10 03:32:36;;;;;;;41.85;26.42;;;;;;;;;;5016738;28;20026;-64
2023/12/10 03:35:02;;;;;;;40.60;25.48;;;;;;;;;;5014945;28;20034;-63
2023/12/10 03:37:27;;;;;;;41.75;26.20;;;;;;;;;;5016293;28;20018;-63
2023/12/10 03:39:53;;;;;;;43.25;25.30;;;;;;;;;;4998927;28;20490;-63
2023/12/10 03:42:18;;;;;;;42.22;26.30;;;;;;;;;;5016130;28;20053;-63
2023/12/10 03:44:44;;;;;;;41.88;25.52;;;;;;;;;;5016114;28;20021;-63
2023/12/10 03:47:09;;;;;;;41.47;25.63;;;;;;;;;;5015974;28;20025;-63
2023/12/10 03:52:39;;;;;;;46.08;27.20;;;;;;;;;;3711062;23;20028;-61
2023/12/10 03:55:05;;;;;;;44.40;28.08;;;;;;;;;;5025868;23;20049;-57
2023/12/10 03:57:31;;;;;;;46.63;27.23;;;;;;;;;;5016073;28;20049;-57
2023/12/10 03:59:58;;;;;;;43.78;27.27;;;;;;;;;;5015741;28;20026;-57
2023/12/10 04:02:24;;;;;;;42.08;26.10;;;;;;;;;;5016421;28;20113;-57
2023/12/10 04:04:49;;;;;;;42.75;27.02;;;;;;;;;;5015618;28;20065;-57
2023/12/10 04:07:15;;;;;;;43.45;27.23;;;;;;;;;;5016273;28;20117;-57
2023/12/10 04:09:41;;;;;;;46.28;27.30;;;;;;;;;;5014252;28;20044;-57
2023/12/10 04:12:06;;;;;;;42.20;27.42;;;;;;;;;;5015846;28;20034;-57
2023/12/10 04:14:32;;;;;;;44.33;27.73;;;;;;;;;;5015963;28;20028;-57
2023/12/10 04:16:57;;;;;;;43.13;26.13;;;;;;;;;;5015805;28;20117;-58
2023/12/10 04:19:23;;;;;;;45.33;28.05;;;;;;;;;;5015380;28;20025;-57
2023/12/10 04:21:48;;;;;;;40.15;26.25;;;;;;;;;;5015528;28;20121;-57
2023/12/10 04:24:15;;;;;;;41.58;25.67;;;;;;;;;;4997740;28;20084;-57
2023/12/10 04:26:40;;;;;;;44.28;26.42;;;;;;;;;;5015834;28;20116;-57
2023/12/10 04:29:07;;;;;;;41.97;26.75;;;;;;;;;;5015739;28;20056;-57
2023/12/10 04:31:32;;;;;;;36.58;24.08;;;;;;;;;;5015372;28;20472;-57
2023/12/10 04:33:58;;;;;;;39.00;24.17;;;;;;;;;;5014573;28;20076;-57
2023/12/10 04:36:23;;;;;;;34.50;21.70;;;;;;;;;;5015256;28;20388;-57
2023/12/10 04:38:49;;;;;;;34.70;22.08;;;;;;;;;;5015293;28;20076;-57
2023/12/10 04:41:14;;;;;;;33.38;21.92;;;;;;;;;;4997382;28;20052;-57
2023/12/10 04:43:40;;;;;;;34.88;21.70;;;;;;;;;;5014883;28;20037;-57
2023/12/10 04:46:05;;;;;;;33.97;20.55;;;;;;;;;;5015306;28;20037;-57
2023/12/10 04:48:31;;;;;;;34.20;21.85;;;;;;;;;;5015103;28;20026;-57
2023/12/10 04:50:56;;;;;;;32.60;21.38;;;;;;;;;;4997430;28;20049;-57
2023/12/10 04:53:22;;;;;;;32.85;21.20;;;;;;;;;;5014667;28;20022;-57
2023/12/10 04:55:48;;;;;;;30.00;20.10;;;;;;;;;;4996931;28;20052;-57
2023/12/10 04:58:13;;;;;;;34.17;21.60;;;;;;;;;;5014781;28;20076;-57
2023/12/10 05:00:38;;;;;;;33.10;21.42;;;;;;;;;;5014643;28;20036;-58
2023/12/10 05:03:04;;;;;;;32.72;20.65;;;;;;;;;;5015181;28;20034;-58
2023/12/10 05:05:29;;;;;;;32.53;21.40;;;;;;;;;;5014549;28;20116;-58
2023/12/10 05:07:55;;;;;;;31.23;20.02;;;;;;;;;;5014510;28;20025;-57
2023/12/10 05:10:21;;;;;;;32.30;20.05;;;;;;;;;;5015203;28;20030;-57
2023/12/10 05:12:47;;;;;;;32.70;20.35;;;;;;;;;;5014471;28;20022;-58
2023/12/10 05:15:13;;;;;;;27.65;18.90;;;;;;;;;;5014851;28;20038;-57
2023/12/10 05:17:38;;;;;;;28.88;18.88;;;;;;;;;;5014448;28;20104;-57
2023/12/10 05:20:05;;;;;;;29.10;19.08;;;;;;;;;;5014397;28;20384;-57
2023/12/10 05:22:30;;;;;;;28.95;19.05;;;;;;;;;;5014323;28;20029;-57
2023/12/10 05:24:56;;;;;;;30.63;19.40;;;;;;;;;;4997049;28;20034;-57
2023/12/10 05:27:21;;;;;;;29.30;19.52;;;;;;;;;;5014974;28;20451;-57
2023/12/10 05:29:46;;;;;;;33.88;20.27;;;;;;;;;;5014610;28;20081;-57
2023/12/10 05:32:12;;;;;;;31.20;20.75;;;;;;;;;;5014062;28;20080;-58
2023/12/10 05:34:37;;;;;;;28.02;18.27;;;;;;;;;;5014671;28;20041;-58
2023/12/10 05:37:03;;;;;;;26.65;18.70;;;;;;;;;;5014085;28;20030;-63
2023/12/10 05:39:28;;;;;;;28.55;17.75;;;;;;;;;;5014337;28;20097;-63
2023/12/10 05:41:54;;;;;;;26.85;17.58;;;;;;;;;;5014353;28;20026;-63
2023/12/10 05:44:19;;;;;;;27.35;19.02;;;;;;;;;;5014316;28;20057;-63
2023/12/10 05:46:45;;;;;;;31.65;20.77;;;;;;;;;;5013804;28;20109;-63
2023/12/10 05:49:10;;;;;;;34.67;22.83;;;;;;;;;;5014234;28;20456;-63
2023/12/10 05:51:36;;;;;;;31.33;21.80;;;;;;;;;;5014125;28;20034;-63
2023/12/10 05:54:02;;;;;;;29.15;20.23;;;;;;;;;;5013898;28;20042;-63
2023/12/10 05:56:27;;;;;;;30.42;19.17;;;;;;;;;;5013903;28;20498;-63
2023/12/10 05:58:52;;;;;;;28.52;19.02;;;;;;;;;;4996537;28;20038;-63
2023/12/10 06:01:19;;;;;;;26.75;17.05;;;;;;;;;;5014005;28;20379;-63
2023/12/10 06:03:44;;;;;;;27.67;19.15;;;;;;;;;;5014148;28;20088;-63
2023/12/10 06:06:13;;;;;;;29.08;19.90;;;;;;;;;;5014265;28;20415;-63
2023/12/10 06:08:39;;;;;;;28.38;18.80;;;;;;;;;;4996691;28;20067;-62
2023/12/10 06:11:05;;;;;;;26.58;18.33;;;;;;;;;;5014078;28;20061;-62
2023/12/10 06:13:30;;;;;;;32.38;19.77;;;;;;;;;;5014448;28;20037;-62
2023/12/10 06:15:57;;;;;;;40.03;23.55;;;;;;;;;;5014237;28;20034;-62
2023/12/10 06:18:23;;;;;;;29.13;19.60;;;;;;;;;;4996384;28;20029;-62
2023/12/10 06:20:49;;;;;;;24.50;17.25;;;;;;;;;;5013477;28;20527;-62
2023/12/10 06:23:14;;;;;;;24.90;17.55;;;;;;;;;;5014013;28;20022;-62
2023/12/10 06:25:40;;;;;;;24.02;16.98;;;;;;;;;;5013827;28;20451;-62
2023/12/10 06:28:05;;;;;;;23.90;17.02;;;;;;;;;;4996192;28;20038;-62
2023/12/10 06:30:31;;;;;;;27.20;18.17;;;;;;;;;;5014247;28;20037;-62
2023/12/10 06:32:56;;;;;;;26.38;17.50;;;;;;;;;;4996193;28;20076;-61
2023/12/10 06:35:22;;;;;;;26.92;16.88;;;;;;;;;;5014024;28;20026;-61
2023/12/10 06:37:47;;;;;;;26.65;17.05;;;;;;;;;;5013662;28;20069;-61
2023/12/10 06:40:13;;;;;;;26.42;17.20;;;;;;;;;;5014074;28;20081;-61
2023/12/10 06:42:38;;;;;;;30.20;19.38;;;;;;;;;;5014101;28;20014;-62
2023/12/10 06:45:05;;;;;;;36.47;23.83;;;;;;;;;;5013350;28;20054;-62
2023/12/10 06:47:31;;;;;;;60.88;38.40;;;;;;;;;;5013490;28;20037;-62
2023/12/10 06:49:56;;;;;;;54.97;33.60;;;;;;;;;;4995847;28;20465;-63
2023/12/10 06:52:21;;;;;;;36.67;24.75;;;;;;;;;;5013599;28;20022;-62
2023/12/10 06:54:47;;;;;;;31.15;19.65;;;;;;;;;;4996290;28;20471;-62
2023/12/10 06:57:12;;;;;;;29.83;18.40;;;;;;;;;;5015249;28;20113;-62
2023/12/10 06:59:38;;;;;;;27.15;18.23;;;;;;;;;;5017553;28;20025;-62
2023/12/10 07:02:03;;;;;;;26.58;17.75;;;;;;;;;;5017058;28;20059;-62
2023/12/10 07:04:29;;;;;;;25.85;17.65;;;;;;;;;;5017136;28;20037;-62
2023/12/10 07:06:55;;;;;;;32.63;21.65;;;;;;;;;;5017358;28;20361;-62
2023/12/10 07:09:21;;;;;;;32.38;21.38;;;;;;;;;;5017040;28;20026;-62
2023/12/10 07:11:47;;;;;;;35.05;23.58;;;;;;;;;;5016896;28;20041;-62
2023/12/10 07:14:13;;;;;;;38.42;25.35;;;;;;;;;;5017154;28;20025;-62
2023/12/10 07:16:38;;;;;;;44.97;26.63;;;;;;;;;;5017197;28;20037;-62
2023/12/10 07:19:03;;;;;;;41.63;26.83;;;;;;;;;;4999653;28;20033;-62
2023/12/10 07:21:29;;;;;;;101.28;71.18;;;;;;;;;;5016454;28;20029;-63
2023/12/10 07:23:54;;;;;;;77.78;49.65;;;;;;;;;;5016183;28;20373;-63
2023/12/10 07:26:21;;;;;;;80.90;58.17;;;;;;;;;;4998784;28;20057;-63
2023/12/10 07:28:46;;;;;;;57.75;42.60;;;;;;;;;;5016126;28;20088;-62
2023/12/10 07:31:12;;;;;;;41.95;29.35;;;;;;;;;;5015893;28;20022;-62
2023/12/10 07:33:37;;;;;;;36.55;23.45;;;;;;;;;;4982248;28;20030;-63
2023/12/10 07:36:03;;;;;;;32.80;21.25;;;;;;;;;;5016301;28;20121;-62
2023/12/10 07:38:28;;;;;;;37.90;23.38;;;;;;;;;;5015839;28;20060;-68
2023/12/10 07:40:54;;;;;;;43.88;26.60;;;;;;;;;;5016193;28;20006;-62
2023/12/10 07:43:19;;;;;;;42.28;27.58;;;;;;;;;;4997447;28;20438;-62
2023/12/10 07:45:45;;;;;;;53.30;31.67;;;;;;;;;;5015403;28;20037;-62
2023/12/10 07:48:12;;;;;;;47.90;28.90;;;;;;;;;;5015600;28;20036;-62
2023/12/10 07:50:38;;;;;;;49.33;27.27;;;;;;;;;;4998291;28;20058;-62
2023/12/10 07:53:03;;;;;;;48.03;26.63;;;;;;;;;;5015888;28;20045;-62
2023/12/10 07:55:29;;;;;;;47.17;27.02;;;;;;;;;;5014614;28;20049;-62
2023/12/10 07:57:55;;;;;;;45.78;28.10;;;;;;;;;;5015888;28;20342;-62
2023/12/10 08:00:20;;;;;;;55.55;28.10;;;;;;;;;;5015026;28;20423;-58
2023/12/10 08:02:49;;;;;;;65.32;30.67;;;;;;;;;;4996994;28;20068;-57
2023/12/10 08:05:15;;;;;;;74.10;34.22;;;;;;;;;;5014839;28;20030;-57
2023/12/10 08:07:40;;;;;;;84.85;36.58;;;;;;;;;;5014372;28;20041;-57
2023/12/10 08:10:06;;;;;;;76.72;32.40;;;;;;;;;;5014297;28;20105;-57
2023/12/10 08:12:32;;;;;;;52.83;26.00;;;;;;;;;;5014273;28;20080;-62
2023/12/10 08:14:57;;;;;;;77.57;36.35;;;;;;;;;;4978799;28;20026;-62
2023/12/10 08:17:23;;;;;;;100.25;41.75;;;;;;;;;;4996099;28;20030;-62
2023/12/10 08:19:48;;;;;;;93.15;44.58;;;;;;;;;;4995763;28;20015;-62
2023/12/10 08:22:14;;;;;;;94.10;42.85;;;;;;;;;;4995279;28;20065;-62
2023/12/10 08:24:40;;;;;;;95.90;38.92;;;;;;;;;;4998279;28;20349;-62
2023/12/10 08:27:06;;;;;;;78.88;35.75;;;;;;;;;;4995762;28;20484;-62
2023/12/10 08:29:31;;;;;;;62.17;30.08;;;;;;;;;;4995760;28;20112;-62
2023/12/10 08:31:57;;;;;;;54.70;30.80;;;;;;;;;;4995596;28;20446;-62
2023/12/10 08:34:22;;;;;;;58.88;34.55;;;;;;;;;;4995560;28;20033;-62
2023/12/10 08:36:48;;;;;;;60.13;31.13;;;;;;;;;;4995026;28;20054;-62
2023/12/10 08:39:13;;;;;;;66.05;34.63;;;;;;;;;;4995257;28;20081;-62
2023/12/10 08:41:39;;;;;;;88.60;45.75;;;;;;;;;;4977951;28;20030;-63
2023/12/10 08:44:04;;;;;;;79.88;42.85;;;;;;;;;;4996611;28;20441;-64
2023/12/10 08:46:29;;;;;;;84.70;51.25;;;;;;;;;;5005842;28;20022;-63
2023/12/10 08:48:55;;;;;;;112.63;79.38;;;;;;;;;;5005112;28;20471;-63
2023/12/10 08:51:21;;;;;;;74.97;52.38;;;;;;;;;;5004484;28;20043;-58
2023/12/10 08:53:46;;;;;;;70.13;46.70;;;;;;;;;;4985533;28;20037;-59
2023/12/10 08:56:12;;;;;;;40.45;26.30;;;;;;;;;;4985873;28;20045;-58
2023/12/10 08:58:37;;;;;;;40.00;25.05;;;;;;;;;;5004725;28;20033;-58
2023/12/10 09:01:03;;;;;;;34.85;21.48;;;;;;;;;;5003399;28;20018;-58
2023/12/10 09:03:28;;;;;;;32.30;21.88;;;;;;;;;;5003340;28;20357;-58
2023/12/10 09:05:54;;;;;;;41.78;22.55;;;;;;;;;;5005272;28;20034;-63
2023/12/10 09:08:19;;;;;;;69.32;33.88;;;;;;;;;;4985974;28;20396;-63
2023/12/10 09:11:12;;;;;;;85.15;35.08;;;;;;;;;;5004188;28;20033;-63
2023/12/10 09:13:38;;;;;;;135.98;47.22;;;;;;;;;;5005249;28;20088;-63
2023/12/10 09:16:17;;;;;;;137.38;52.13;;;;;;;;;;5004203;28;20026;-64
2023/12/10 09:18:46;;;;;;;105.00;43.40;;;;;;;;;;5005054;28;20104;-64
2023/12/10 09:21:13;;;;;;;99.53;44.97;;;;;;;;;;5004493;28;20053;-64
2023/12/10 09:23:38;;;;;;;79.03;40.10;;;;;;;;;;5004870;28;20029;-63
2023/12/10 09:26:04;;;;;;;49.65;25.85;;;;;;;;;;5003658;28;20034;-58
2023/12/10 09:28:29;;;;;;;54.88;30.33;;;;;;;;;;5002225;28;20541;-58
2023/12/10 09:30:55;;;;;;;35.65;21.17;;;;;;;;;;5004049;28;20030;-58
2023/12/10 09:33:20;;;;;;;25.27;15.90;;;;;;;;;;5002895;28;20049;-58
2023/12/10 09:35:45;;;;;;;20.70;13.07;;;;;;;;;;5003404;28;20029;-58
2023/12/10 09:38:11;;;;;;;19.38;12.85;;;;;;;;;;5004707;28;20026;-58
2023/12/10 09:40:38;;;;;;;23.75;14.50;;;;;;;;;;5002398;28;20022;-58
2023/12/10 09:43:03;;;;;;;19.27;12.27;;;;;;;;;;4986316;28;20030;-58
2023/12/10 09:45:32;;;;;;;22.50;13.95;;;;;;;;;;5004486;28;20133;-58
2023/12/10 09:47:58;;;;;;;19.52;12.98;;;;;;;;;;5004305;28;20116;-63
2023/12/10 09:50:24;;;;;;;18.38;12.15;;;;;;;;;;4985788;28;20073;-63
2023/12/10 09:52:49;;;;;;;18.70;13.32;;;;;;;;;;5001781;28;20022;-64
2023/12/10 09:55:15;;;;;;;17.45;11.50;;;;;;;;;;5001648;28;20496;-64
2023/12/10 09:57:41;;;;;;;15.93;11.25;;;;;;;;;;4986065;28;20125;-59
2023/12/10 10:00:07;;;;;;;20.63;12.50;;;;;;;;;;5003625;28;20030;-63
2023/12/10 10:02:33;;;;;;;18.38;11.45;;;;;;;;;;5002293;28;20079;-63
2023/12/10 10:04:59;;;;;;;18.15;11.45;;;;;;;;;;5003987;28;20057;-63
2023/12/10 10:07:30;;;;;;;18.52;11.55;;;;;;;;;;5003612;28;20031;-63
2023/12/10 10:09:56;;;;;;;16.35;10.43;;;;;;;;;;4983731;28;20097;-62
2023/12/10 10:12:21;;;;;;;17.08;11.63;;;;;;;;;;4996253;28;20113;-62
2023/12/10 10:15:07;;;;;;;16.23;11.05;;;;;;;;;;5013685;28;20034;-63
2023/12/10 10:17:33;;;;;;;19.88;12.73;;;;;;;;;;5014131;28;20026;-63
2023/12/10 10:19:59;;;;;;;35.88;20.63;;;;;;;;;;5013755;28;20080;-63
2023/12/10 10:22:25;;;;;;;38.00;22.38;;;;;;;;;;5010457;28;20035;-63
2023/12/10 10:24:51;;;;;;;17.55;10.90;;;;;;;;;;5011446;28;20038;-63
2023/12/10 10:27:18;;;;;;;17.35;11.98;;;;;;;;;;4996113;28;20038;-63
2023/12/10 10:29:44;;;;;;;14.88;10.20;;;;;;;;;;5009633;28;20018;-63
2023/12/10 10:32:16;;;;;;;15.52;10.57;;;;;;;;;;4996000;28;20467;-62
2023/12/10 10:34:45;;;;;;;15.40;10.50;;;;;;;;;;4997269;28;20041;-62
2023/12/10 10:37:10;;;;;;;17.17;11.18;;;;;;;;;;4979544;28;20605;-60
2023/12/10 10:39:36;;;;;;;17.77;12.15;;;;;;;;;;4963947;28;20030;-63
2023/12/10 10:42:08;;;;;;;18.30;11.52;;;;;;;;;;4997071;28;20022;-62
2023/12/10 10:44:42;;;;;;;14.20;11.55;;;;;;;;;;4997811;28;20031;-61
2023/12/10 10:47:08;;;;;;;17.70;12.20;;;;;;;;;;4997350;28;20038;-61
2023/12/10 10:49:42;;;;;;;16.85;11.38;;;;;;;;;;4979886;28;20400;-63
2023/12/10 10:52:11;;;;;;;20.38;13.43;;;;;;;;;;4997192;28;20034;-61
2023/12/10 10:54:37;;;;;;;16.27;10.95;;;;;;;;;;4975903;28;20050;-62
2023/12/10 10:57:02;;;;;;;17.42;11.35;;;;;;;;;;4977039;28;20374;-62
2023/12/10 10:59:28;;;;;;;16.80;10.60;;;;;;;;;;4977359;28;20149;-61
2023/12/10 11:01:54;;;;;;;18.95;12.35;;;;;;;;;;4959822;28;20077;-61
2023/12/10 11:04:21;;;;;;;18.42;12.70;;;;;;;;;;4977031;28;20055;-62
2023/12/10 11:06:50;;;;;;;18.95;12.40;;;;;;;;;;4944960;28;20109;-62
2023/12/10 11:09:16;;;;;;;21.67;13.02;;;;;;;;;;4977662;28;20015;-62
2023/12/10 11:11:42;;;;;;;18.67;12.15;;;;;;;;;;4978012;28;20023;-62
2023/12/10 11:14:17;;;;;;;15.02;11.55;;;;;;;;;;4978131;28;20448;-61
2023/12/10 11:16:42;;;;;;;18.23;12.70;;;;;;;;;;4977173;28;20054;-61
2023/12/10 11:19:08;;;;;;;13.77;10.02;;;;;;;;;;4976109;28;20469;-61
2023/12/10 11:21:33;;;;;;;15.90;10.73;;;;;;;;;;4977166;28;20031;-61
2023/12/10 11:23:59;;;;;;;15.15;10.15;;;;;;;;;;4977522;28;20113;-62
2023/12/10 11:26:24;;;;;;;15.50;10.30;;;;;;;;;;4977320;28;20035;-61
2023/12/10 11:28:51;;;;;;;16.02;10.27;;;;;;;;;;4960048;28;20062;-62
2023/12/10 11:31:17;;;;;;;15.48;10.07;;;;;;;;;;4975817;28;20023;-61
2023/12/10 11:33:43;;;;;;;15.50;9.98;;;;;;;;;;4975239;28;20393;-61
2023/12/10 11:36:09;;;;;;;16.65;11.65;;;;;;;;;;4976646;28;20023;-61
2023/12/10 11:38:34;;;;;;;16.45;10.30;;;;;;;;;;4974793;28;20031;-62
2023/12/10 11:41:00;;;;;;;17.10;11.90;;;;;;;;;;4975649;28;20098;-61
2023/12/10 11:43:26;;;;;;;14.63;10.55;;;;;;;;;;4974855;28;20429;-61
2023/12/10 11:45:52;;;;;;;16.10;11.57;;;;;;;;;;4976918;28;20031;-61
2023/12/10 11:48:18;;;;;;;18.23;12.07;;;;;;;;;;4976999;28;20039;-61
2023/12/10 11:50:45;;;;;;;18.30;11.50;;;;;;;;;;4977175;28;20018;-61
2023/12/10 11:53:11;;;;;;;17.67;11.90;;;;;;;;;;4977089;28;20034;-61
2023/12/10 11:55:37;;;;;;;18.13;11.90;;;;;;;;;;4975525;28;20046;-61
2023/12/10 11:58:02;;;;;;;15.88;11.25;;;;;;;;;;4977182;28;20117;-61
2023/12/10 12:00:28;;;;;;;16.80;11.38;;;;;;;;;;4975879;28;20381;-62
2023/12/10 12:02:54;;;;;;;14.48;10.25;;;;;;;;;;4977303;28;20047;-61
2023/12/10 12:05:19;;;;;;;16.75;10.98;;;;;;;;;;4976929;28;20038;-61
2023/12/10 12:07:47;;;;;;;18.58;12.63;;;;;;;;;;4976913;28;20025;-61
2023/12/10 12:10:13;;;;;;;19.02;11.63;;;;;;;;;;4975338;28;20035;-61
2023/12/10 12:12:43;;;;;;;16.27;11.43;;;;;;;;;;4976434;28;20054;-62
2023/12/10 12:15:12;;;;;;;16.02;10.98;;;;;;;;;;4976760;28;20089;-61
2023/12/10 12:17:38;;;;;;;13.63;9.40;;;;;;;;;;4976769;28;20110;-61
2023/12/10 12:20:17;;;;;;;15.65;10.80;;;;;;;;;;4976393;28;20054;-61
2023/12/10 12:22:43;;;;;;;17.20;11.93;;;;;;;;;;4976644;28;20043;-62
2023/12/10 12:25:08;;;;;;;16.38;10.88;;;;;;;;;;4976559;28;20039;-61
2023/12/10 12:27:34;;;;;;;15.85;10.77;;;;;;;;;;4975253;28;20038;-61
2023/12/10 12:29:59;;;;;;;16.25;11.15;;;;;;;;;;4976465;28;20038;-61
2023/12/10 12:32:24;;;;;;;16.02;11.02;;;;;;;;;;4976414;28;20026;-61
2023/12/10 12:34:50;;;;;;;14.75;10.20;;;;;;;;;;4976135;28;20034;-61
2023/12/10 12:37:15;;;;;;;13.63;9.13;;;;;;;;;;4976380;28;20121;-61
2023/12/10 12:39:41;;;;;;;16.52;11.43;;;;;;;;;;4976339;28;20022;-61
2023/12/10 12:42:12;;;;;;;15.70;10.52;;;;;;;;;;4976259;28;20524;-61
2023/12/10 12:44:41;;;;;;;21.45;11.93;;;;;;;;;;4976231;28;20035;-62
2023/12/10 12:47:07;;;;;;;19.63;11.05;;;;;;;;;;4975043;28;20035;-63
2023/12/10 12:49:32;;;;;;;15.20;9.98;;;;;;;;;;4958586;28;20035;-64
2023/12/10 12:51:57;;;;;;;13.88;9.80;;;;;;;;;;4976059;28;20042;-64
2023/12/10 12:54:23;;;;;;;17.83;10.30;;;;;;;;;;4978821;28;20038;-65
2023/12/10 12:56:48;;;;;;;14.88;10.30;;;;;;;;;;4995107;28;20054;-65
2023/12/10 12:59:14;;;;;;;14.32;9.98;;;;;;;;;;4977794;28;20040;-65
2023/12/10 13:01:39;;;;;;;14.93;10.57;;;;;;;;;;4995339;28;20381;-65
2023/12/10 13:04:05;;;;;;;11.43;8.25;;;;;;;;;;4977573;28;20031;-65
2023/12/10 13:06:30;;;;;;;15.23;9.70;;;;;;;;;;4977568;28;20035;-64
2023/12/10 13:08:56;;;;;;;15.13;9.60;;;;;;;;;;4994951;28;20469;-65
2023/12/10 13:11:21;;;;;;;12.15;9.00;;;;;;;;;;4995191;28;20026;-65
2023/12/10 13:13:46;;;;;;;13.02;9.52;;;;;;;;;;4994774;28;20389;-65
2023/12/10 13:16:12;;;;;;;12.00;9.52;;;;;;;;;;4994806;28;20109;-64
2023/12/10 13:18:37;;;;;;;11.50;9.00;;;;;;;;;;4995074;28;20038;-64
2023/12/10 13:21:03;;;;;;;11.48;9.07;;;;;;;;;;4977443;28;20523;-65
2023/12/10 13:23:30;;;;;;;12.20;10.10;;;;;;;;;;4995232;28;20042;-65
2023/12/10 13:25:55;;;;;;;9.18;7.60;;;;;;;;;;4994944;28;20034;-65
2023/12/10 13:28:21;;;;;;;9.15;7.05;;;;;;;;;;4994889;28;20149;-64
2023/12/10 13:30:47;;;;;;;10.93;7.32;;;;;;;;;;4994607;28;20030;-64
2023/12/10 13:33:12;;;;;;;9.20;6.82;;;;;;;;;;4994766;28;20034;-64
2023/12/10 13:35:37;;;;;;;12.85;8.48;;;;;;;;;;4977177;28;20102;-64
2023/12/10 13:38:03;;;;;;;8.95;6.90;;;;;;;;;;4994488;28;20109;-64
2023/12/10 13:40:28;;;;;;;7.97;6.38;;;;;;;;;;4994994;28;20034;-64
2023/12/10 13:42:54;;;;;;;9.95;8.45;;;;;;;;;;4960953;28;20097;-64
2023/12/10 13:45:19;;;;;;;10.50;7.93;;;;;;;;;;4994393;28;20034;-64
2023/12/10 13:47:45;;;;;;;10.38;7.45;;;;;;;;;;4994660;28;20026;-64
2023/12/10 13:50:10;;;;;;;9.63;6.63;;;;;;;;;;4994335;28;20033;-64
2023/12/10 13:52:36;;;;;;;9.88;7.43;;;;;;;;;;4977078;28;20046;-64
2023/12/10 13:55:02;;;;;;;9.10;6.78;;;;;;;;;;4994568;28;20043;-64
2023/12/10 13:57:32;;;;;;;8.80;6.82;;;;;;;;;;4994503;28;20065;-64
2023/12/10 13:59:57;;;;;;;6.57;5.88;;;;;;;;;;4994552;28;20054;-64
2023/12/10 14:02:27;;;;;;;7.30;6.40;;;;;;;;;;4960539;28;20089;-65
2023/12/10 14:04:53;;;;;;;7.25;5.40;;;;;;;;;;4994211;28;20113;-65
2023/12/10 14:07:18;;;;;;;7.00;6.18;;;;;;;;;;4996472;28;20165;-65
2023/12/10 14:09:46;;;;;;;6.55;5.90;;;;;;;;;;4998415;28;20037;-65
2023/12/10 14:12:12;;;;;;;9.25;5.95;;;;;;;;;;4997978;28;20065;-65
2023/12/10 14:14:39;;;;;;;7.07;6.38;;;;;;;;;;4964524;28;20125;-65